createdAt,value
2019-02-04T00:03:43.760Z,80.11
2019-02-04T00:06:34.277Z,81.64
2019-02-04T00:09:23.164Z,82.87
2019-02-04T00:12:13.676Z,84.18
2019-02-04T00:15:02.491Z,83.16
2019-02-04T00:17:44.008Z,82.12
2019-02-04T00:20:32.822Z,81.80
2019-02-04T00:23:21.655Z,80.71
2019-02-04T00:26:10.462Z,80.14
2019-02-04T00:28:59.279Z,79.09
2019-02-04T00:31:55.324Z,78.34
2019-02-04T00:34:44.148Z,78.25
2019-02-04T00:37:32.955Z,78.08
2019-02-04T00:40:42.692Z,77.63
2019-02-04T00:43:31.492Z,77.35
2019-02-04T00:46:20.308Z,77.79
2019-02-04T00:49:09.097Z,77.86
2019-02-04T00:51:57.915Z,77.83
2019-02-04T00:54:46.709Z,77.38
2019-02-04T00:57:35.525Z,77.04
2019-02-04T01:00:43.647Z,76.73
2019-02-04T01:03:23.709Z,76.71
2019-02-04T01:06:12.577Z,77.20
2019-02-04T01:09:01.413Z,78.38
2019-02-04T01:11:51.921Z,78.15
2019-02-04T01:14:40.751Z,78.76
2019-02-04T01:17:31.284Z,78.36
2019-02-04T01:20:40.988Z,78.13
2019-02-04T01:23:29.789Z,77.76
2019-02-04T01:26:18.580Z,77.35
2019-02-04T01:29:07.396Z,77.59
2019-02-04T01:31:56.191Z,77.60
2019-02-04T01:34:45.011Z,78.08
2019-02-04T01:37:33.804Z,78.54
2019-02-04T01:40:43.741Z,78.53
2019-02-04T01:43:32.614Z,78.47
2019-02-04T01:46:21.471Z,78.15
2019-02-04T01:49:10.325Z,77.93
2019-02-04T01:51:59.402Z,77.61
2019-02-04T01:54:49.928Z,77.52
2019-02-04T01:57:38.754Z,77.51
2019-02-04T02:00:46.865Z,77.24
2019-02-04T02:03:28.174Z,79.39
2019-02-04T02:06:16.974Z,81.00
2019-02-04T02:09:26.703Z,80.79
2019-02-04T02:12:15.758Z,80.17
2019-02-04T02:15:25.485Z,79.96
2019-02-04T02:18:14.297Z,79.01
2019-02-04T02:21:03.119Z,77.89
2019-02-04T02:23:52.541Z,77.97
2019-02-04T02:26:41.361Z,78.04
2019-02-04T02:29:31.894Z,78.49
2019-02-04T02:32:20.709Z,78.09
2019-02-04T02:35:09.584Z,78.40
2019-02-04T02:37:58.535Z,77.74
2019-02-04T02:40:47.503Z,77.83
2019-02-04T02:43:36.350Z,77.92
2019-02-04T02:46:25.229Z,78.46
2019-02-04T02:49:14.030Z,79.16
2019-02-04T02:52:02.851Z,78.89
2019-02-04T02:54:53.363Z,79.24
2019-02-04T02:57:42.187Z,78.97
2019-02-04T03:00:31.357Z,78.48
2019-02-04T03:03:20.498Z,77.96
2019-02-04T03:06:09.300Z,77.63
2019-02-04T03:08:58.266Z,77.33
2019-02-04T03:11:47.207Z,77.33
2019-02-04T03:14:36.166Z,77.42
2019-02-04T03:17:25.088Z,77.14
2019-02-04T03:20:14.113Z,77.15
2019-02-04T03:23:03.418Z,77.28
2019-02-04T03:25:52.242Z,77.66
2019-02-04T03:28:41.063Z,77.80
2019-02-04T03:31:31.604Z,77.99
2019-02-04T03:34:20.393Z,78.18
2019-02-04T03:37:10.897Z,79.04
2019-02-04T03:39:59.707Z,78.36
2019-02-04T03:42:48.570Z,78.05
2019-02-04T03:45:37.393Z,77.87
2019-02-04T03:48:26.187Z,77.48
2019-02-04T03:51:14.997Z,77.34
2019-02-04T03:54:03.787Z,77.03
2019-02-04T03:56:52.596Z,76.69
2019-02-04T03:59:41.514Z,77.19
2019-02-04T04:02:30.462Z,77.26
2019-02-04T04:05:19.521Z,77.80
2019-02-04T04:08:08.400Z,77.51
2019-02-04T04:10:49.782Z,76.86
2019-02-04T04:13:38.586Z,76.44
2019-02-04T04:16:27.391Z,76.20
2019-02-04T04:19:16.240Z,75.66
2019-02-04T04:22:05.063Z,75.68
2019-02-04T04:24:53.943Z,75.74
2019-02-04T04:27:42.766Z,75.85
2019-02-04T04:30:31.553Z,75.64
2019-02-04T04:33:20.371Z,75.46
2019-02-04T04:36:09.186Z,78.54
2019-02-04T04:38:59.696Z,78.80
2019-02-04T04:41:48.497Z,78.55
2019-02-04T04:44:37.300Z,78.38
2019-02-04T04:47:26.111Z,78.28
2019-02-04T04:50:15.043Z,77.81
2019-02-04T04:53:03.924Z,77.60
2019-02-04T04:55:52.735Z,77.31
2019-02-04T04:58:41.524Z,77.06
2019-02-04T05:01:30.348Z,77.12
2019-02-04T05:04:12.040Z,76.56
2019-02-04T05:07:00.803Z,77.09
2019-02-04T05:09:49.593Z,76.86
2019-02-04T05:12:38.399Z,76.70
2019-02-04T05:15:48.126Z,76.76
2019-02-04T05:18:38.385Z,76.40
2019-02-04T05:21:27.445Z,76.65
2019-02-04T05:24:35.294Z,77.84
2019-02-04T05:27:24.111Z,77.58
2019-02-04T05:30:33.828Z,78.69
2019-02-04T05:33:22.628Z,78.17
2019-02-04T05:36:11.443Z,78.50
2019-02-04T05:39:00.245Z,79.25
2019-02-04T05:41:49.059Z,78.67
2019-02-04T05:44:37.858Z,78.39
2019-02-04T05:47:26.684Z,78.69
2019-02-04T05:50:36.381Z,78.71
2019-02-04T05:53:25.369Z,78.42
2019-02-04T05:56:14.167Z,78.57
2019-02-04T05:59:02.985Z,78.27
2019-02-04T06:01:51.771Z,78.31
2019-02-04T06:04:31.535Z,77.70
2019-02-04T06:07:20.328Z,77.82
2019-02-04T06:10:30.053Z,78.09
2019-02-04T06:13:18.835Z,77.71
2019-02-04T06:16:07.710Z,77.13
2019-02-04T06:19:00.975Z,76.95
2019-02-04T06:21:47.052Z,77.16
2019-02-04T06:24:35.845Z,76.89
2019-02-04T06:27:24.650Z,76.56
2019-02-04T06:30:34.365Z,75.98
2019-02-04T06:33:23.183Z,75.92
2019-02-04T06:36:11.990Z,75.99
2019-02-04T06:39:00.801Z,76.36
2019-02-04T06:41:49.597Z,76.35
2019-02-04T06:44:38.417Z,76.80
2019-02-04T06:47:27.220Z,77.56
2019-02-04T06:50:36.940Z,78.18
2019-02-04T06:53:25.763Z,77.78
2019-02-04T06:56:14.554Z,77.44
2019-02-04T06:59:03.358Z,76.83
2019-02-04T07:01:52.238Z,76.34
2019-02-04T07:04:33.995Z,76.29
2019-02-04T07:07:22.799Z,76.08
2019-02-04T07:10:32.762Z,76.13
2019-02-04T07:13:21.686Z,76.00
2019-02-04T07:16:10.561Z,75.76
2019-02-04T07:18:59.354Z,76.68
2019-02-04T07:21:48.213Z,77.84
2019-02-04T07:24:42.958Z,78.44
2019-02-04T07:27:27.547Z,79.68
2019-02-04T07:30:37.255Z,80.31
2019-02-04T07:33:26.103Z,80.96
2019-02-04T07:36:14.962Z,81.76
2019-02-04T07:39:24.436Z,81.55
2019-02-04T07:42:13.245Z,80.84
2019-02-04T07:45:02.081Z,81.17
2019-02-04T07:47:50.946Z,80.53
2019-02-04T07:50:39.772Z,80.40
2019-02-04T07:53:28.616Z,80.30
2019-02-04T07:56:17.462Z,80.05
2019-02-04T07:59:06.298Z,80.15
2019-02-04T08:01:56.822Z,79.72
2019-02-04T08:04:45.676Z,79.42
2019-02-04T08:07:26.955Z,79.36
2019-02-04T08:10:16.645Z,78.93
2019-02-04T08:13:05.546Z,78.95
2019-02-04T08:15:54.477Z,78.33
2019-02-04T08:18:43.267Z,78.73
2019-02-04T08:21:32.057Z,78.11
2019-02-04T08:24:13.707Z,77.91
2019-02-04T08:27:02.501Z,77.96
2019-02-04T08:29:51.307Z,77.87
2019-02-04T08:32:40.113Z,78.13
2019-02-04T08:35:29.161Z,77.74
2019-02-04T08:38:17.956Z,77.56
2019-02-04T08:41:06.771Z,77.24
2019-02-04T08:43:55.641Z,76.96
2019-02-04T08:46:46.181Z,76.59
2019-02-04T08:49:34.973Z,76.48
2019-02-04T08:52:25.568Z,76.57
2019-02-04T08:55:14.371Z,76.39
2019-02-04T08:58:03.196Z,76.53
2019-02-04T09:00:51.994Z,76.79
2019-02-04T09:03:40.821Z,76.41
2019-02-04T09:06:22.665Z,76.23
2019-02-04T09:09:11.661Z,75.75
2019-02-04T09:12:02.275Z,77.20
2019-02-04T09:14:51.174Z,76.12
2019-02-04T09:17:39.973Z,76.68
2019-02-04T09:20:28.853Z,76.54
2019-02-04T09:23:17.643Z,76.26
2019-02-04T09:26:06.465Z,75.88
2019-02-04T09:28:55.247Z,75.82
2019-02-04T09:31:44.058Z,76.02
2019-02-04T09:34:32.853Z,76.58
2019-02-04T09:37:23.465Z,76.49
2019-02-04T09:40:33.496Z,76.25
2019-02-04T09:43:22.327Z,76.84
2019-02-04T09:46:11.103Z,76.18
2019-02-04T09:48:59.916Z,75.52
2019-02-04T09:51:48.709Z,74.42
2019-02-04T09:54:37.794Z,74.39
2019-02-04T09:57:26.586Z,74.28
2019-02-04T10:00:36.307Z,73.89
2019-02-04T10:03:25.117Z,72.58
2019-02-04T10:06:06.625Z,72.55
2019-02-04T10:08:55.515Z,72.96
2019-02-04T10:11:44.300Z,73.23
2019-02-04T10:14:33.103Z,72.63
2019-02-04T10:17:22.022Z,71.71
2019-02-04T10:20:34.564Z,70.61
2019-02-04T10:23:22.231Z,70.46
2019-02-04T10:26:11.045Z,70.02
2019-02-04T10:29:01.888Z,69.55
2019-02-04T10:31:50.702Z,69.27
2019-02-04T10:34:39.484Z,68.63
2019-02-04T10:37:28.289Z,67.72
2019-02-04T10:40:38.002Z,68.18
2019-02-04T10:43:26.907Z,67.93
2019-02-04T10:46:15.677Z,67.87
2019-02-04T10:49:04.554Z,67.65
2019-02-04T10:51:55.096Z,66.57
2019-02-04T10:54:43.901Z,67.17
2019-02-04T10:57:40.273Z,67.03
2019-02-04T11:00:42.738Z,66.89
2019-02-04T11:03:31.666Z,66.44
2019-02-04T11:06:13.167Z,66.50
2019-02-04T11:09:02.007Z,66.43
2019-02-04T11:11:50.890Z,66.60
2019-02-04T11:14:39.839Z,66.96
2019-02-04T11:17:28.770Z,66.71
2019-02-04T11:20:38.509Z,65.75
2019-02-04T11:23:29.196Z,64.73
2019-02-04T11:26:17.900Z,64.01
2019-02-04T11:29:06.828Z,63.50
2019-02-04T11:31:55.642Z,63.42
2019-02-04T11:34:44.465Z,64.84
2019-02-04T11:37:33.283Z,64.28
2019-02-04T11:40:41.567Z,63.25
2019-02-04T11:43:32.095Z,63.21
2019-02-04T11:46:20.888Z,63.75
2019-02-04T11:49:09.688Z,63.84
2019-02-04T11:51:58.476Z,64.90
2019-02-04T11:54:47.289Z,65.06
2019-02-04T11:57:36.078Z,64.86
2019-02-04T12:00:45.796Z,65.20
2019-02-04T12:03:34.591Z,64.96
2019-02-04T12:06:23.389Z,64.75
2019-02-04T12:09:06.470Z,64.45
2019-02-04T12:11:55.771Z,64.78
2019-02-04T12:14:45.794Z,64.63
2019-02-04T12:17:34.598Z,65.28
2019-02-04T12:20:23.467Z,65.51
2019-02-04T12:23:12.352Z,65.91
2019-02-04T12:26:02.859Z,65.34
2019-02-04T12:28:51.681Z,65.10
2019-02-04T12:31:42.187Z,65.02
2019-02-04T12:34:31.333Z,64.90
2019-02-04T12:40:27.877Z,64.40
2019-02-04T12:43:16.674Z,64.68
2019-02-04T12:46:05.544Z,64.06
2019-02-04T12:48:56.078Z,63.53
2019-02-04T12:51:44.889Z,63.40
2019-02-04T12:54:33.673Z,63.85
2019-02-04T12:57:22.488Z,64.69
2019-02-04T13:00:32.193Z,64.21
2019-02-04T13:03:21.002Z,63.87
2019-02-04T13:06:11.859Z,63.90
2019-02-04T13:08:53.158Z,63.61
2019-02-04T13:11:41.968Z,63.66
2019-02-04T13:14:30.754Z,63.14
2019-02-04T13:17:19.560Z,62.51
2019-02-04T13:20:29.255Z,62.61
2019-02-04T13:23:19.791Z,61.35
2019-02-04T13:26:27.682Z,61.39
2019-02-04T13:29:16.487Z,61.47
2019-02-04T13:32:05.365Z,61.33
2019-02-04T13:34:54.150Z,61.58
2019-02-04T13:38:02.056Z,61.29
2019-02-04T13:40:51.398Z,60.92
2019-02-04T13:43:40.259Z,60.85
2019-02-04T13:46:29.135Z,61.11
2019-02-04T13:49:18.064Z,61.40
2019-02-04T13:52:06.913Z,60.85
2019-02-04T13:54:55.740Z,61.25
2019-02-04T13:57:46.300Z,61.25
2019-02-04T14:00:56.069Z,61.91
2019-02-04T14:03:44.919Z,61.55
2019-02-04T14:06:33.772Z,61.75
2019-02-04T14:09:16.152Z,61.12
2019-02-04T14:12:05.069Z,61.18
2019-02-04T14:14:55.679Z,61.01
2019-02-04T14:20:40.621Z,61.66
2019-02-04T14:23:29.529Z,62.02
2019-02-04T14:26:20.137Z,62.65
2019-02-04T14:29:08.987Z,62.12
2019-02-04T14:31:57.939Z,62.91
2019-02-04T14:34:46.768Z,63.10
2019-02-04T14:37:36.021Z,63.09
2019-02-04T14:40:24.801Z,63.21
2019-02-04T14:43:32.931Z,63.34
2019-02-04T14:46:42.648Z,63.62
2019-02-04T14:50:10.152Z,63.34
2019-02-04T14:53:19.841Z,63.52
2019-02-04T14:56:47.346Z,63.61
2019-02-04T14:59:57.050Z,64.23
2019-02-04T15:03:19.155Z,64.42
2019-02-04T15:06:18.209Z,64.72
2019-02-04T15:09:01.281Z,65.33
2019-02-04T15:12:10.988Z,64.71
2019-02-04T15:15:20.751Z,64.97
2019-02-04T15:18:52.218Z,64.91
2019-02-04T15:22:19.697Z,64.71
2019-02-04T15:25:47.196Z,64.76
2019-02-04T15:28:56.973Z,64.79
2019-02-04T15:32:06.722Z,64.15
2019-02-04T15:35:16.436Z,64.45
2019-02-04T15:38:26.351Z,64.68
2019-02-04T15:41:36.076Z,64.57
2019-02-04T15:44:45.827Z,64.66
2019-02-04T15:47:55.554Z,64.16
2019-02-04T15:51:24.765Z,64.41
2019-02-04T15:54:13.938Z,64.35
2019-02-04T15:57:02.761Z,63.50
2019-02-04T15:59:51.551Z,63.41
2019-02-04T16:02:40.354Z,63.70
2019-02-04T16:05:29.147Z,63.40
2019-02-04T16:08:18.002Z,63.45
2019-02-04T16:10:59.288Z,63.48
2019-02-04T16:13:48.108Z,63.81
2019-02-04T16:16:36.894Z,64.03
2019-02-04T16:19:27.424Z,63.65
2019-02-04T16:22:16.213Z,63.66
2019-02-04T16:25:25.933Z,63.58
2019-02-04T16:28:14.744Z,63.59
2019-02-04T16:31:03.558Z,63.47
2019-02-04T16:33:52.383Z,63.97
2019-02-04T16:37:00.565Z,63.95
2019-02-04T16:39:49.356Z,63.83
2019-02-04T16:42:38.169Z,64.16
2019-02-04T16:48:34.789Z,63.90
2019-02-04T16:51:23.575Z,63.72
2019-02-04T16:54:12.389Z,63.62
2019-02-04T16:57:01.176Z,63.24
2019-02-04T16:59:49.981Z,63.19
2019-02-04T17:02:38.797Z,63.23
2019-02-04T17:05:29.402Z,62.83
2019-02-04T17:08:18.355Z,63.28
2019-02-04T17:11:08.866Z,62.69
2019-02-04T17:13:57.947Z,63.12
2019-02-04T17:16:46.737Z,62.74
2019-02-04T17:19:35.543Z,62.70
2019-02-04T17:25:33.739Z,62.68
2019-02-04T17:28:24.315Z,63.17
2019-02-04T17:31:13.120Z,62.98
2019-02-04T17:34:01.947Z,62.77
2019-02-04T17:36:50.711Z,62.71
2019-02-04T17:39:39.585Z,62.56
2019-02-04T17:42:28.452Z,63.20
2019-02-04T17:45:17.885Z,63.06
2019-02-04T17:51:22.390Z,63.60
2019-02-04T17:54:11.198Z,64.09
2019-02-04T17:56:59.992Z,63.65
2019-02-04T17:59:48.808Z,63.41
2019-02-04T18:02:56.698Z,63.13
2019-02-04T18:05:45.587Z,63.44
2019-02-04T18:08:36.088Z,63.17
2019-02-04T18:11:17.525Z,63.53
2019-02-04T18:14:06.692Z,63.46
2019-02-04T18:16:55.504Z,63.31
2019-02-04T18:19:44.285Z,63.41
2019-02-04T18:22:33.093Z,63.26
2019-02-04T18:25:42.798Z,63.72
2019-02-04T18:28:31.600Z,63.65
2019-02-04T18:31:20.768Z,63.70
2019-02-04T18:34:11.317Z,63.74
2019-02-04T18:37:00.097Z,63.56
2019-02-04T18:39:48.902Z,63.90
2019-02-04T18:42:37.692Z,64.10
2019-02-04T18:45:47.400Z,64.11
2019-02-04T18:48:36.245Z,64.03
2019-02-04T18:51:25.098Z,64.41
2019-02-04T18:54:13.891Z,64.20
2019-02-04T18:57:02.708Z,64.77
2019-02-04T18:59:51.769Z,64.75
2019-02-04T19:02:33.101Z,64.71
2019-02-04T19:05:21.900Z,64.42
2019-02-04T19:08:10.781Z,64.57
2019-02-04T19:10:59.565Z,64.89
2019-02-04T19:13:48.388Z,64.64
2019-02-04T19:16:37.175Z,64.74
2019-02-04T19:19:27.814Z,65.12
2019-02-04T19:22:16.674Z,64.62
2019-02-04T19:25:26.464Z,64.24
2019-02-04T19:28:15.277Z,64.64
2019-02-04T19:31:24.988Z,64.95
2019-02-04T19:34:13.790Z,64.51
2019-02-04T19:37:02.738Z,64.14
2019-02-04T19:39:51.578Z,64.31
2019-02-04T19:42:40.384Z,64.33
2019-02-04T19:45:29.615Z,64.36
2019-02-04T19:48:18.403Z,64.58
2019-02-04T19:51:07.227Z,64.27
2019-02-04T19:53:57.765Z,64.62
2019-02-04T19:56:46.568Z,64.45
2019-02-04T19:59:27.902Z,64.54
2019-02-04T20:02:16.765Z,64.27
2019-02-04T20:05:26.477Z,64.17
2019-02-04T20:08:15.356Z,64.46
2019-02-04T20:14:19.456Z,64.14
2019-02-04T20:17:08.245Z,64.17
2019-02-04T20:19:57.063Z,63.93
2019-02-04T20:22:45.928Z,63.88
2019-02-04T20:28:50.700Z,63.88
2019-02-04T20:31:39.520Z,64.00
2019-02-04T20:34:28.426Z,64.70
2019-02-04T20:37:17.190Z,64.76
2019-02-04T20:40:26.888Z,64.84
2019-02-04T20:43:15.779Z,65.30
2019-02-04T20:46:04.651Z,65.50
2019-02-04T20:48:53.458Z,65.48
2019-02-04T20:51:42.264Z,65.77
2019-02-04T20:54:31.057Z,65.95
2019-02-04T20:57:00.540Z,65.12
2019-02-04T20:59:49.353Z,65.28
2019-02-04T21:02:38.168Z,65.58
2019-02-04T21:05:27.136Z,65.38
2019-02-04T21:08:15.945Z,65.57
2019-02-04T21:11:04.732Z,65.67
2019-02-04T21:13:53.629Z,65.40
2019-02-04T21:16:44.134Z,64.95
2019-02-04T21:19:32.947Z,65.23
2019-02-04T21:22:21.732Z,65.60
2019-02-04T21:25:10.981Z,65.70
2019-02-04T21:27:59.803Z,65.45
2019-02-04T21:30:48.667Z,65.16
2019-02-04T21:33:37.487Z,65.46
2019-02-04T21:36:26.347Z,65.63
2019-02-04T21:39:15.227Z,65.25
2019-02-04T21:42:04.019Z,65.14
2019-02-04T21:44:52.828Z,65.33
2019-02-04T21:47:43.358Z,65.59
2019-02-04T21:50:32.198Z,65.96
2019-02-04T21:53:21.003Z,65.87
2019-02-04T21:56:09.818Z,65.83
2019-02-04T21:58:58.602Z,65.02
2019-02-04T22:01:40.022Z,65.12
2019-02-04T22:04:28.818Z,64.97
2019-02-04T22:07:17.705Z,65.00
2019-02-04T22:10:27.415Z,65.30
2019-02-04T22:13:16.206Z,65.13
2019-02-04T22:16:06.748Z,65.31
2019-02-04T22:18:55.545Z,65.44
2019-02-04T22:21:44.350Z,65.30
2019-02-04T22:24:34.865Z,64.79
2019-02-04T22:27:23.798Z,65.33
2019-02-04T22:30:31.860Z,65.04
2019-02-04T22:33:20.659Z,65.15
2019-02-04T22:36:11.192Z,64.47
2019-02-04T22:38:59.986Z,64.27
2019-02-04T22:41:50.514Z,65.17
2019-02-04T22:44:39.321Z,65.13
2019-02-04T22:47:28.124Z,65.53
2019-02-04T22:50:37.823Z,64.96
2019-02-04T22:53:26.628Z,64.20
2019-02-04T22:56:15.412Z,64.10
2019-02-04T22:59:05.938Z,64.25
2019-02-04T23:01:48.014Z,64.24
2019-02-04T23:04:36.833Z,64.16
2019-02-04T23:07:25.635Z,64.31
2019-02-04T23:10:14.766Z,63.82
2019-02-04T23:13:03.636Z,64.32
2019-02-04T23:15:54.087Z,63.72
2019-02-04T23:18:42.955Z,63.85
2019-02-04T23:21:31.894Z,64.15
2019-02-04T23:24:20.648Z,63.96
2019-02-04T23:27:09.452Z,64.23
2019-02-04T23:30:00.036Z,64.19
2019-02-04T23:32:48.854Z,64.05
2019-02-04T23:35:37.634Z,64.13
2019-02-04T23:38:26.439Z,64.53
2019-02-04T23:41:15.237Z,64.12
2019-02-04T23:47:13.589Z,63.78
2019-02-04T23:50:02.454Z,63.42
2019-02-04T23:52:51.263Z,63.71
2019-02-04T23:55:40.047Z,64.18
2019-02-04T23:58:28.870Z,63.91
